createdAt,value
2023-04-16T00:00:45.257Z,76.4
2023-04-16T00:01:45.292Z,76.4
2023-04-16T00:02:45.465Z,76.4
2023-04-16T00:03:45.565Z,76.4
2023-04-16T00:04:45.387Z,76.4
2023-04-16T00:05:45.236Z,76.4
2023-04-16T00:06:45.283Z,76.4
2023-04-16T00:07:45.288Z,76.4
2023-04-16T00:08:45.293Z,76.4
2023-04-16T00:09:45.284Z,76.4
2023-04-16T00:10:45.278Z,76.4
2023-04-16T00:11:45.283Z,76.4
2023-04-16T00:12:45.278Z,76.4
2023-04-16T00:13:45.286Z,76.4
2023-04-16T00:14:45.323Z,76.4
2023-04-16T00:15:45.290Z,76.4
2023-04-16T00:16:45.339Z,76.4
2023-04-16T00:17:45.336Z,76.4
2023-04-16T00:18:45.289Z,76.4
2023-04-16T00:19:45.310Z,76.4
2023-04-16T00:20:45.299Z,76.4
2023-04-16T00:21:45.281Z,76.4
2023-04-16T00:22:45.308Z,76.4
2023-04-16T00:23:45.282Z,76.4
2023-04-16T00:24:45.296Z,76.4
2023-04-16T00:25:45.281Z,76.4
2023-04-16T00:26:45.338Z,76.4
2023-04-16T00:27:45.299Z,76.5
2023-04-16T00:28:45.282Z,76.5
2023-04-16T00:29:45.306Z,76.5
2023-04-16T00:30:45.432Z,76.5
2023-04-16T00:31:45.302Z,76.5
2023-04-16T00:32:45.336Z,76.5
2023-04-16T00:33:45.306Z,76.5
2023-04-16T00:34:45.295Z,76.5
2023-04-16T00:35:45.300Z,76.5
2023-04-16T00:36:45.304Z,77.3
2023-04-16T00:37:45.317Z,77.3
2023-04-16T00:38:45.308Z,77.3
2023-04-16T00:39:45.362Z,77.3
2023-04-16T00:40:45.299Z,77.3
2023-04-16T00:41:45.326Z,77.3
2023-04-16T00:42:45.333Z,77.3
2023-04-16T00:43:45.320Z,77.3
2023-04-16T00:44:45.332Z,77.3
2023-04-16T00:45:45.360Z,77.3
2023-04-16T00:46:45.425Z,77.3
2023-04-16T00:47:45.326Z,77.3
2023-04-16T00:48:45.332Z,77.3
2023-04-16T00:49:45.376Z,77.3
2023-04-16T00:50:45.288Z,77.3
2023-04-16T00:51:45.324Z,77.3
2023-04-16T00:52:45.294Z,77.3
2023-04-16T00:53:45.327Z,77.3
2023-04-16T00:54:45.334Z,77.3
2023-04-16T00:55:45.343Z,77.3
2023-04-16T00:56:45.331Z,77.3
2023-04-16T00:57:45.301Z,77.3
2023-04-16T00:58:45.345Z,78.1
2023-04-16T00:59:45.345Z,78.1
2023-04-16T01:00:45.287Z,78.1
2023-04-16T01:01:45.465Z,78.1
2023-04-16T01:02:45.458Z,78.1
2023-04-16T01:03:45.469Z,78.1
2023-04-16T01:04:45.352Z,78.1
2023-04-16T01:05:45.311Z,78.1
2023-04-16T01:06:45.372Z,78.1
2023-04-16T01:07:45.351Z,78.1
2023-04-16T01:08:45.352Z,78.1
2023-04-16T01:09:45.358Z,78.1
2023-04-16T01:10:45.351Z,78.1
2023-04-16T01:11:45.338Z,78.1
2023-04-16T01:12:45.396Z,78.1
2023-04-16T01:13:45.416Z,78.1
2023-04-16T01:14:45.345Z,78.1
2023-04-16T01:15:45.444Z,78.1
2023-04-16T01:16:45.350Z,78.1
2023-04-16T01:17:45.376Z,78.1
2023-04-16T01:18:45.363Z,78.1
2023-04-16T01:19:45.379Z,78.1
2023-04-16T01:20:45.360Z,78.1
2023-04-16T01:21:45.355Z,78.3
2023-04-16T01:22:45.377Z,78.3
2023-04-16T01:23:45.403Z,78.3
2023-04-16T01:24:45.402Z,78.3
2023-04-16T01:25:45.378Z,78.3
2023-04-16T01:26:45.394Z,78.3
2023-04-16T01:27:45.373Z,78.3
2023-04-16T01:28:45.416Z,78.3
2023-04-16T01:29:45.402Z,78.3
2023-04-16T01:30:45.383Z,78.3
2023-04-16T01:31:45.458Z,78.3
2023-04-16T01:32:45.407Z,78.3
2023-04-16T01:33:45.407Z,78.3
2023-04-16T01:34:45.347Z,78.3
2023-04-16T01:35:45.381Z,78.3
2023-04-16T01:36:45.411Z,78.3
2023-04-16T01:37:45.352Z,78.3
2023-04-16T01:38:45.432Z,78.3
2023-04-16T01:39:45.395Z,78.3
2023-04-16T01:40:45.385Z,78.3
2023-04-16T01:41:45.399Z,78.3
2023-04-16T01:42:45.400Z,78.3
2023-04-16T01:43:45.395Z,78.3
2023-04-16T01:44:45.393Z,78.3
2023-04-16T01:45:45.392Z,78.3
2023-04-16T01:46:45.447Z,78.3
2023-04-16T01:47:45.401Z,78.3
2023-04-16T01:48:45.349Z,78.3
2023-04-16T01:49:45.429Z,78.3
2023-04-16T01:50:45.411Z,78.3
2023-04-16T01:51:45.366Z,78.3
2023-04-16T01:52:45.408Z,78.3
2023-04-16T01:53:45.365Z,78.3
2023-04-16T01:54:45.360Z,78.3
2023-04-16T01:55:45.413Z,78.3
2023-04-16T01:56:45.390Z,78.3
2023-04-16T01:57:45.371Z,78.3
2023-04-16T01:58:45.414Z,78.3
2023-04-16T01:59:45.440Z,78.3
2023-04-16T02:00:45.466Z,78.3
2023-04-16T02:01:45.491Z,78.3
2023-04-16T02:02:45.572Z,78.3
2023-04-16T02:03:45.665Z,78.3
2023-04-16T02:04:45.393Z,78.3
2023-04-16T02:05:45.428Z,78.3
2023-04-16T02:06:45.406Z,79.4
2023-04-16T02:07:45.421Z,79.4
2023-04-16T02:08:45.426Z,79.4
2023-04-16T02:09:45.386Z,79.4
2023-04-16T02:10:45.430Z,79.4
2023-04-16T02:11:45.493Z,79.4
2023-04-16T02:12:45.421Z,79.4
2023-04-16T02:13:45.397Z,79.4
2023-04-16T02:14:45.423Z,79.4
2023-04-16T02:15:45.426Z,79.4
2023-04-16T02:16:45.425Z,79.5
2023-04-16T02:17:45.529Z,79.5
2023-04-16T02:18:45.392Z,79.5
2023-04-16T02:19:45.383Z,79.5
2023-04-16T02:20:45.403Z,79.5
2023-04-16T02:21:45.393Z,79.5
2023-04-16T02:22:45.407Z,79.5
2023-04-16T02:23:45.398Z,79.5
2023-04-16T02:24:45.385Z,79.5
2023-04-16T02:25:45.410Z,79.5
2023-04-16T02:26:45.444Z,79.5
2023-04-16T02:27:45.408Z,79.5
2023-04-16T02:28:45.480Z,79.5
2023-04-16T02:29:45.402Z,79.5
2023-04-16T02:30:45.428Z,79.5
2023-04-16T02:31:45.450Z,79.5
2023-04-16T02:32:45.461Z,79.5
2023-04-16T02:33:45.410Z,79.5
2023-04-16T02:34:45.391Z,79.5
2023-04-16T02:35:45.391Z,79.5
2023-04-16T02:36:45.404Z,79.5
2023-04-16T02:37:45.392Z,79.5
2023-04-16T02:38:45.465Z,79.5
2023-04-16T02:39:45.505Z,79.5
2023-04-16T02:40:45.458Z,79.5
2023-04-16T02:41:45.447Z,79.5
2023-04-16T02:42:45.391Z,79.5
2023-04-16T02:43:45.412Z,79.5
2023-04-16T02:44:45.407Z,79.5
2023-04-16T02:45:45.496Z,79.5
2023-04-16T02:46:45.400Z,79.5
2023-04-16T02:47:45.446Z,79.5
2023-04-16T02:48:45.417Z,79.5
2023-04-16T02:49:45.426Z,79.5
2023-04-16T02:50:45.472Z,79.5
2023-04-16T02:51:45.429Z,79.5
2023-04-16T02:52:45.475Z,79.5
2023-04-16T02:53:45.436Z,79.5
2023-04-16T02:54:45.420Z,79.5
2023-04-16T02:55:45.448Z,79.5
2023-04-16T02:56:45.455Z,79.5
2023-04-16T02:57:45.456Z,79.5
2023-04-16T02:58:45.453Z,79.5
2023-04-16T02:59:45.454Z,79.5
2023-04-16T03:00:45.417Z,79.5
2023-04-16T03:01:45.542Z,79.5
2023-04-16T03:02:45.639Z,79.5
2023-04-16T03:03:45.588Z,79.5
2023-04-16T03:04:45.438Z,79.5
2023-04-16T03:05:45.511Z,79.5
2023-04-16T03:06:45.466Z,79.5
2023-04-16T03:07:45.434Z,79.5
2023-04-16T03:08:45.451Z,79.5
2023-04-16T03:09:45.487Z,79.5
2023-04-16T03:10:45.525Z,79.6
2023-04-16T03:11:45.551Z,79.6
2023-04-16T03:12:45.462Z,79.6
2023-04-16T03:13:45.456Z,79.6
2023-04-16T03:14:45.482Z,79.6
2023-04-16T03:15:45.537Z,79.6
2023-04-16T03:16:45.471Z,79.6
2023-04-16T03:17:45.524Z,79.6
2023-04-16T03:18:45.589Z,79.6
2023-04-16T03:19:45.497Z,79.6
2023-04-16T03:20:45.493Z,79.6
2023-04-16T03:21:45.527Z,79.6
2023-04-16T03:22:45.489Z,79.6
2023-04-16T03:23:45.497Z,79.6
2023-04-16T03:24:45.514Z,79.6
2023-04-16T03:25:45.529Z,79.6
2023-04-16T03:26:45.526Z,79.6
2023-04-16T03:27:45.552Z,79.6
2023-04-16T03:28:45.524Z,79.6
2023-04-16T03:29:45.523Z,79.6
2023-04-16T03:30:45.526Z,79.6
2023-04-16T03:31:45.472Z,79.6
2023-04-16T03:32:45.558Z,79.6
2023-04-16T03:33:45.561Z,79.6
2023-04-16T03:34:45.512Z,79.6
2023-04-16T03:35:45.514Z,79.6
2023-04-16T03:36:45.532Z,79.6
2023-04-16T03:37:45.519Z,79.6
2023-04-16T03:38:45.521Z,79.6
2023-04-16T03:39:45.554Z,79.6
2023-04-16T03:40:45.531Z,79.6
2023-04-16T03:41:45.526Z,79.6
2023-04-16T03:42:45.527Z,79.6
2023-04-16T03:43:45.532Z,79.6
2023-04-16T03:44:45.570Z,79.6
2023-04-16T03:45:45.547Z,79.6
2023-04-16T03:46:45.577Z,79.6
2023-04-16T03:47:45.622Z,79.6
2023-04-16T03:48:47.561Z,79.6
2023-04-16T03:49:45.551Z,79.6
2023-04-16T03:50:45.572Z,79.6
2023-04-16T03:51:45.564Z,79.6
2023-04-16T03:52:45.609Z,79.6
2023-04-16T03:53:45.571Z,79.6
2023-04-16T03:54:45.582Z,79.6
2023-04-16T03:55:45.579Z,79.6
2023-04-16T03:56:45.586Z,79.6
2023-04-16T03:57:45.629Z,79.6
2023-04-16T03:58:45.585Z,79.6
2023-04-16T03:59:45.586Z,79.6
2023-04-16T04:00:45.610Z,79.6
2023-04-16T04:01:45.651Z,79.6
2023-04-16T04:02:45.820Z,79.6
2023-04-16T04:03:45.747Z,79.6
2023-04-16T04:04:46.683Z,79.6
2023-04-16T04:05:45.650Z,79.6
2023-04-16T04:06:45.561Z,79.6
2023-04-16T04:07:45.599Z,78.3
2023-04-16T04:08:45.661Z,78.3
2023-04-16T04:09:45.608Z,78.3
2023-04-16T04:10:45.641Z,78.3
2023-04-16T04:11:45.715Z,78.3
2023-04-16T04:12:45.634Z,78.3
2023-04-16T04:13:45.610Z,78.3
2023-04-16T04:14:45.583Z,78.3
2023-04-16T04:15:45.607Z,78.3
2023-04-16T04:16:45.757Z,78.3
2023-04-16T04:17:45.699Z,78.3
2023-04-16T04:18:45.627Z,78.3
2023-04-16T04:20:00.069Z,78.3
2023-04-16T04:20:45.645Z,78.3
2023-04-16T04:21:45.600Z,78.3
2023-04-16T04:22:45.612Z,78.3
2023-04-16T04:23:45.677Z,78.3
2023-04-16T04:24:45.618Z,77.5
2023-04-16T04:25:45.683Z,77.5
2023-04-16T04:26:45.598Z,77.5
2023-04-16T04:27:45.640Z,77.5
2023-04-16T04:28:45.643Z,77.5
2023-04-16T04:29:45.649Z,77.5
2023-04-16T04:30:45.654Z,77.5
2023-04-16T04:31:45.697Z,77.5
2023-04-16T04:32:45.722Z,77.5
2023-04-16T04:33:45.651Z,77.5
2023-04-16T04:34:45.691Z,77.5
2023-04-16T04:35:45.681Z,77.5
2023-04-16T04:36:45.662Z,77.5
2023-04-16T04:37:45.673Z,77.5
2023-04-16T04:38:45.669Z,77.5
2023-04-16T04:39:45.703Z,77.5
2023-04-16T04:40:45.706Z,77.5
2023-04-16T04:41:45.683Z,77.5
2023-04-16T04:42:45.686Z,77.5
2023-04-16T04:43:45.676Z,77.5
2023-04-16T04:44:45.676Z,77.5
2023-04-16T04:45:45.750Z,77.5
2023-04-16T04:46:45.674Z,77.5
2023-04-16T04:47:45.755Z,77.5
2023-04-16T04:48:45.696Z,77.5
2023-04-16T04:49:45.719Z,77.5
2023-04-16T04:50:45.680Z,77.5
2023-04-16T04:51:45.706Z,77.5
2023-04-16T04:52:45.713Z,77.5
2023-04-16T04:53:45.725Z,76.1
2023-04-16T04:54:45.739Z,76.1
2023-04-16T04:55:45.734Z,76.1
2023-04-16T04:56:45.780Z,76.1
2023-04-16T04:57:45.757Z,76.1
2023-04-16T04:58:45.746Z,76.1
2023-04-16T04:59:45.786Z,76.1
2023-04-16T05:00:45.809Z,75.7
2023-04-16T05:01:45.728Z,75.7
2023-04-16T05:02:45.836Z,75.7
2023-04-16T05:03:45.827Z,75.7
2023-04-16T05:04:45.742Z,75.7
2023-04-16T05:05:45.775Z,75.7
2023-04-16T05:06:45.709Z,75.7
2023-04-16T05:07:45.783Z,75.7
2023-04-16T05:08:45.782Z,75.7
2023-04-16T05:09:45.803Z,75.7
2023-04-16T05:10:45.806Z,75.7
2023-04-16T05:11:45.747Z,75.7
2023-04-16T05:12:47.143Z,75.7
2023-04-16T05:13:45.767Z,75.7
2023-04-16T05:14:45.768Z,75.7
2023-04-16T05:15:45.765Z,75.7
2023-04-16T05:16:45.880Z,75.7
2023-04-16T05:17:45.805Z,75.7
2023-04-16T05:18:45.725Z,74.5
2023-04-16T05:19:45.774Z,74.5
2023-04-16T05:20:45.821Z,74.5
2023-04-16T05:21:45.774Z,74.5
2023-04-16T05:22:45.780Z,74.5
2023-04-16T05:23:45.751Z,74.5
2023-04-16T05:24:45.740Z,74.5
2023-04-16T05:25:45.819Z,74.5
2023-04-16T05:26:45.778Z,74.5
2023-04-16T05:27:45.743Z,74.5
2023-04-16T05:28:45.733Z,74.5
2023-04-16T05:29:45.846Z,74.5
2023-04-16T05:30:45.902Z,74.5
2023-04-16T05:31:45.848Z,74.5
2023-04-16T05:32:45.811Z,74.5
2023-04-16T05:33:45.772Z,72.8
2023-04-16T05:34:45.792Z,72.8
2023-04-16T05:35:45.782Z,72.8
2023-04-16T05:36:45.750Z,72.8
2023-04-16T05:37:45.777Z,72.8
2023-04-16T05:38:45.804Z,72.8
2023-04-16T05:39:45.782Z,72.8
2023-04-16T05:40:45.807Z,72.8
2023-04-16T05:41:45.745Z,72.8
2023-04-16T05:42:45.806Z,72.8
2023-04-16T05:43:45.805Z,72.8
2023-04-16T05:44:45.792Z,72.8
2023-04-16T05:45:45.857Z,72.8
2023-04-16T05:46:45.830Z,72.8
2023-04-16T05:47:45.799Z,72.8
2023-04-16T05:48:45.801Z,72.8
2023-04-16T05:49:45.779Z,72.8
2023-04-16T05:50:45.792Z,72.8
2023-04-16T05:51:45.786Z,72.8
2023-04-16T05:52:45.828Z,72.8
2023-04-16T05:53:45.803Z,72.8
2023-04-16T05:54:45.797Z,72.8
2023-04-16T05:55:45.814Z,72.8
2023-04-16T05:56:45.824Z,71.4
2023-04-16T05:57:45.848Z,71.4
2023-04-16T05:58:45.866Z,71.4
2023-04-16T05:59:45.793Z,71.4
2023-04-16T06:00:45.818Z,71.4
2023-04-16T06:01:45.813Z,71.4
2023-04-16T06:02:45.985Z,71.4
2023-04-16T06:03:45.937Z,71.4
2023-04-16T06:04:45.831Z,71.4
2023-04-16T06:05:45.917Z,71.4
2023-04-16T06:06:45.840Z,71.4
2023-04-16T06:07:45.802Z,71.4
2023-04-16T06:08:45.807Z,71.4
2023-04-16T06:09:45.847Z,71.4
2023-04-16T06:10:45.873Z,71.4
2023-04-16T06:11:45.864Z,71.4
2023-04-16T06:12:45.836Z,71.4
2023-04-16T06:13:45.827Z,71.4
2023-04-16T06:14:45.850Z,71.4
2023-04-16T06:15:45.883Z,71.4
2023-04-16T06:16:45.989Z,71.4
2023-04-16T06:17:45.870Z,71.4
2023-04-16T06:18:45.874Z,71.4
2023-04-16T06:19:45.854Z,71.4
2023-04-16T06:20:45.874Z,71.6
2023-04-16T06:21:45.843Z,71.6
2023-04-16T06:22:45.912Z,71.6
2023-04-16T06:23:45.882Z,71.6
2023-04-16T06:24:45.892Z,71.6
2023-04-16T06:25:45.905Z,71.6
2023-04-16T06:26:45.876Z,71.6
2023-04-16T06:27:45.920Z,71.6
2023-04-16T06:28:45.921Z,71.6
2023-04-16T06:29:45.910Z,71.6
2023-04-16T06:30:45.890Z,71.6
2023-04-16T06:31:45.951Z,71.6
2023-04-16T06:32:45.986Z,71.6
2023-04-16T06:33:45.972Z,71.6
2023-04-16T06:34:45.910Z,71.6
2023-04-16T06:35:45.917Z,71.6
2023-04-16T06:36:45.908Z,71.6
2023-04-16T06:37:45.961Z,71.6
2023-04-16T06:38:45.936Z,71.6
2023-04-16T06:39:45.966Z,70.4
2023-04-16T06:40:45.946Z,70.4
2023-04-16T06:41:45.919Z,70.4
2023-04-16T06:42:45.912Z,70.4
2023-04-16T06:43:46.001Z,70.4
2023-04-16T06:44:45.945Z,70.4
2023-04-16T06:45:45.964Z,70.4
2023-04-16T06:46:46.049Z,70.4
2023-04-16T06:47:45.961Z,70.4
2023-04-16T06:48:45.961Z,70.4
2023-04-16T06:49:45.937Z,70.4
2023-04-16T06:50:46.021Z,70.4
2023-04-16T06:51:45.961Z,69
2023-04-16T06:52:45.958Z,69
2023-04-16T06:53:45.952Z,69
2023-04-16T06:54:45.948Z,69
2023-04-16T06:55:46.000Z,69
2023-04-16T06:56:45.956Z,69.3
2023-04-16T06:57:45.972Z,69.3
2023-04-16T06:58:45.987Z,69.3
2023-04-16T06:59:45.965Z,69.3
2023-04-16T07:00:45.998Z,69.3
2023-04-16T07:01:45.985Z,69.3
2023-04-16T07:02:46.220Z,69.3
2023-04-16T07:03:46.160Z,69.3
2023-04-16T07:04:46.069Z,69.3
2023-04-16T07:05:45.986Z,69.3
2023-04-16T07:06:46.002Z,69.3
2023-04-16T07:07:45.997Z,69.3
2023-04-16T07:08:45.996Z,67.7
2023-04-16T07:09:46.007Z,67.7
2023-04-16T07:10:45.983Z,67.7
2023-04-16T07:11:45.992Z,67.7
2023-04-16T07:12:46.040Z,67.7
2023-04-16T07:13:45.980Z,67.7
2023-04-16T07:14:46.029Z,67.7
2023-04-16T07:15:46.023Z,67.7
2023-04-16T07:16:46.095Z,67.7
2023-04-16T07:17:46.010Z,67.7
2023-04-16T07:18:46.031Z,67.7
2023-04-16T07:19:45.995Z,67.7
2023-04-16T07:20:46.005Z,67.7
2023-04-16T07:21:46.130Z,67.7
2023-04-16T07:22:46.009Z,67.7
2023-04-16T07:23:46.024Z,67.7
2023-04-16T07:24:46.024Z,67.7
2023-04-16T07:25:46.118Z,66.8
2023-04-16T07:26:46.097Z,66.8
2023-04-16T07:27:46.063Z,66.8
2023-04-16T07:28:46.054Z,66.8
2023-04-16T07:29:46.037Z,66.8
2023-04-16T07:30:46.067Z,66.8
2023-04-16T07:31:46.122Z,66.8
2023-04-16T07:32:46.085Z,66.8
2023-04-16T07:33:46.053Z,66.8
2023-04-16T07:34:46.052Z,66.8
2023-04-16T07:35:46.083Z,66.8
2023-04-16T07:36:46.097Z,65.1
2023-04-16T07:37:46.089Z,65.1
2023-04-16T07:38:46.068Z,65.1
2023-04-16T07:39:46.044Z,65.1
2023-04-16T07:40:46.048Z,65.1
2023-04-16T07:41:46.046Z,65.1
2023-04-16T07:42:46.026Z,65.1
2023-04-16T07:43:46.032Z,65.1
2023-04-16T07:44:46.073Z,65.1
2023-04-16T07:45:46.164Z,65.1
2023-04-16T07:46:47.727Z,65.1
2023-04-16T07:47:46.159Z,65.1
2023-04-16T07:48:46.096Z,65.4
2023-04-16T07:49:46.069Z,65.4
2023-04-16T07:50:46.110Z,65.4
2023-04-16T07:51:46.107Z,65.4
2023-04-16T07:52:46.111Z,65.4
2023-04-16T07:53:46.076Z,65.4
2023-04-16T07:54:46.118Z,63.1
2023-04-16T07:55:46.095Z,63.1
2023-04-16T07:56:46.085Z,63.7
2023-04-16T07:57:46.070Z,63.7
2023-04-16T07:58:46.142Z,63.7
2023-04-16T07:59:46.085Z,63.7
2023-04-16T08:00:46.101Z,63.7
2023-04-16T08:01:46.115Z,63.7
2023-04-16T08:02:46.234Z,63.7
2023-04-16T08:03:46.299Z,63.7
2023-04-16T08:04:46.217Z,63.7
2023-04-16T08:05:46.121Z,63.7
2023-04-16T08:06:46.096Z,63.7
2023-04-16T08:07:46.106Z,63.7
2023-04-16T08:08:46.105Z,63.7
2023-04-16T08:09:46.150Z,63.7
2023-04-16T08:10:46.174Z,63.7
2023-04-16T08:11:46.164Z,63.7
2023-04-16T08:12:46.123Z,63.7
2023-04-16T08:13:46.127Z,63.7
2023-04-16T08:14:46.120Z,63.7
2023-04-16T08:15:46.269Z,63.7
2023-04-16T08:16:46.185Z,63.7
2023-04-16T08:17:46.185Z,63.7
2023-04-16T08:18:46.124Z,63.7
2023-04-16T08:19:46.142Z,62.8
2023-04-16T08:20:46.189Z,62.8
2023-04-16T08:21:46.179Z,62.8
2023-04-16T08:22:46.144Z,62.8
2023-04-16T08:23:46.184Z,62.8
2023-04-16T08:24:46.173Z,62.8
2023-04-16T08:25:46.189Z,62.8
2023-04-16T08:26:46.141Z,62.8
2023-04-16T08:27:46.165Z,62.8
2023-04-16T08:28:46.233Z,62.8
2023-04-16T08:29:46.153Z,62.8
2023-04-16T08:30:46.152Z,62.8
2023-04-16T08:31:46.272Z,62.8
2023-04-16T08:32:48.688Z,62.8
2023-04-16T08:33:46.164Z,62.8
2023-04-16T08:34:46.212Z,62.8
2023-04-16T08:35:46.181Z,62.8
2023-04-16T08:36:46.189Z,62.8
2023-04-16T08:37:46.191Z,62.8
2023-04-16T08:38:46.173Z,62.8
2023-04-16T08:39:46.196Z,62.8
2023-04-16T08:40:46.227Z,62.8
2023-04-16T08:41:46.193Z,62.8
2023-04-16T08:42:46.226Z,62.8
2023-04-16T08:43:46.193Z,63.1
2023-04-16T08:44:48.561Z,63.1
2023-04-16T08:45:46.216Z,63.1
2023-04-16T08:46:46.244Z,63.1
2023-04-16T08:47:46.261Z,63.1
2023-04-16T08:48:46.204Z,63.1
2023-04-16T08:49:46.255Z,63.1
2023-04-16T08:50:46.285Z,63.1
2023-04-16T08:51:46.288Z,63.1
2023-04-16T08:52:46.217Z,64.8
2023-04-16T08:53:46.214Z,64.8
2023-04-16T08:54:46.231Z,64.8
2023-04-16T08:55:46.272Z,64.8
2023-04-16T08:56:46.249Z,64.8
2023-04-16T08:57:46.255Z,64.8
2023-04-16T08:58:46.245Z,64.8
2023-04-16T08:59:46.247Z,64.8
2023-04-16T09:00:46.223Z,64.8
2023-04-16T09:01:46.246Z,64.8
2023-04-16T09:02:46.546Z,64.8
2023-04-16T09:03:46.501Z,64.8
2023-04-16T09:04:46.454Z,63
2023-04-16T09:05:46.245Z,63
2023-04-16T09:06:46.261Z,63
2023-04-16T09:07:46.229Z,63
2023-04-16T09:08:46.288Z,63
2023-04-16T09:09:46.234Z,63
2023-04-16T09:10:46.254Z,63
2023-04-16T09:11:46.235Z,63
2023-04-16T09:12:46.233Z,63
2023-04-16T09:13:46.280Z,63
2023-04-16T09:14:46.261Z,63
2023-04-16T09:15:46.282Z,63
2023-04-16T09:16:46.271Z,63
2023-04-16T09:17:46.331Z,63
2023-04-16T09:18:46.303Z,63
2023-04-16T09:19:46.268Z,63
2023-04-16T09:20:46.263Z,63
2023-04-16T09:21:46.244Z,63
2023-04-16T09:22:46.254Z,63
2023-04-16T09:23:46.297Z,63
2023-04-16T09:24:46.271Z,63
2023-04-16T09:25:46.352Z,63
2023-04-16T09:26:46.266Z,63
2023-04-16T09:27:46.277Z,63
2023-04-16T09:28:46.289Z,63
2023-04-16T09:29:46.299Z,63
2023-04-16T09:30:46.296Z,68.2
2023-04-16T09:31:46.375Z,68.2
2023-04-16T09:32:46.334Z,68.2
2023-04-16T09:33:46.289Z,68.2
2023-04-16T09:34:46.329Z,68.2
2023-04-16T09:35:46.284Z,68.2
2023-04-16T09:36:46.318Z,68.2
2023-04-16T09:37:46.271Z,68.2
2023-04-16T09:38:46.274Z,68.2
2023-04-16T09:39:46.298Z,68.2
2023-04-16T09:40:46.343Z,66.7
2023-04-16T09:41:46.303Z,66.7
2023-04-16T09:42:46.312Z,66.7
2023-04-16T09:43:46.304Z,66.7
2023-04-16T09:44:46.301Z,66.7
2023-04-16T09:45:46.351Z,66.7
2023-04-16T09:46:46.319Z,65.9
2023-04-16T09:47:46.354Z,65.9
2023-04-16T09:48:46.293Z,65.9
2023-04-16T09:49:46.297Z,65.9
2023-04-16T09:50:46.318Z,65.9
2023-04-16T09:51:46.338Z,64.6
2023-04-16T09:52:46.306Z,65.1
2023-04-16T09:53:46.312Z,65.1
2023-04-16T09:54:46.360Z,65.1
2023-04-16T09:55:46.953Z,64.7
2023-04-16T09:56:46.306Z,64.7
2023-04-16T09:57:46.314Z,64.7
2023-04-16T09:58:46.323Z,64.7
2023-04-16T09:59:46.338Z,64.7
2023-04-16T10:00:46.390Z,64.7
2023-04-16T10:01:46.361Z,64.7
2023-04-16T10:02:48.027Z,64.7
2023-04-16T10:03:46.437Z,64.7
2023-04-16T10:04:46.401Z,62.3
2023-04-16T10:05:46.374Z,62.3
2023-04-16T10:06:46.374Z,62.3
2023-04-16T10:07:46.321Z,62.3
2023-04-16T10:08:47.866Z,62.3
2023-04-16T10:09:46.338Z,62.3
2023-04-16T10:10:46.316Z,62.3
2023-04-16T10:11:46.384Z,62.3
2023-04-16T10:12:46.331Z,61.6
2023-04-16T10:13:46.334Z,61.6
2023-04-16T10:14:48.299Z,61.6
2023-04-16T10:15:46.313Z,61.6
2023-04-16T10:16:46.384Z,61.6
2023-04-16T10:17:46.407Z,61.6
2023-04-16T10:18:46.302Z,61.6
2023-04-16T10:19:46.345Z,61.6
2023-04-16T10:20:46.334Z,61.6
2023-04-16T10:21:46.374Z,61.6
2023-04-16T10:22:46.363Z,61.6
2023-04-16T10:23:46.349Z,61.6
2023-04-16T10:24:46.332Z,61.6
2023-04-16T10:25:46.360Z,61.6
2023-04-16T10:26:46.343Z,61.6
2023-04-16T10:27:46.340Z,61.6
2023-04-16T10:28:46.433Z,61.6
2023-04-16T10:29:46.364Z,61.6
2023-04-16T10:30:46.383Z,59
2023-04-16T10:31:46.377Z,59
2023-04-16T10:32:46.487Z,59
2023-04-16T10:33:46.350Z,59
2023-04-16T10:34:46.343Z,59
2023-04-16T10:35:52.370Z,59
2023-04-16T10:36:46.420Z,59
2023-04-16T10:37:46.361Z,59
2023-04-16T10:38:46.424Z,59.2
2023-04-16T10:39:46.330Z,59.2
2023-04-16T10:40:46.364Z,59.2
2023-04-16T10:41:46.377Z,59.2
2023-04-16T10:42:46.357Z,57.7
2023-04-16T10:43:46.384Z,57.7
2023-04-16T10:44:46.381Z,57.7
2023-04-16T10:45:46.363Z,57.7
2023-04-16T10:46:46.324Z,52.7
2023-04-16T10:47:46.400Z,52.7
2023-04-16T10:48:50.255Z,52.7
2023-04-16T10:49:46.379Z,52.7
2023-04-16T10:50:46.377Z,52.7
2023-04-16T10:51:46.335Z,52.7
2023-04-16T10:52:46.407Z,52.7
2023-04-16T10:53:46.384Z,52.7
2023-04-16T10:54:46.404Z,52.7
2023-04-16T10:55:46.403Z,52.7
2023-04-16T10:56:46.365Z,54.2
2023-04-16T10:57:46.408Z,54.2
2023-04-16T10:58:46.444Z,54.2
2023-04-16T10:59:46.440Z,54.2
2023-04-16T11:00:46.395Z,54.2
2023-04-16T11:01:46.452Z,54.2
2023-04-16T11:02:46.681Z,54.2
2023-04-16T11:03:46.621Z,54.2
2023-04-16T11:04:46.683Z,54.2
2023-04-16T11:05:46.423Z,54.2
2023-04-16T11:06:46.398Z,54.2
2023-04-16T11:07:46.414Z,54.2
2023-04-16T11:08:54.151Z,54.2
2023-04-16T11:09:46.433Z,54.2
2023-04-16T11:10:46.424Z,54.2
2023-04-16T11:11:46.411Z,54.2
2023-04-16T11:12:46.431Z,54.2
2023-04-16T11:13:46.468Z,54.2
2023-04-16T11:14:46.443Z,54.2
2023-04-16T11:15:46.437Z,54.2
2023-04-16T11:16:46.429Z,54.2
2023-04-16T11:17:46.457Z,54.2
2023-04-16T11:18:50.870Z,54.2
2023-04-16T11:19:46.481Z,54.2
2023-04-16T11:20:46.450Z,54.2
2023-04-16T11:21:46.449Z,54.2
2023-04-16T11:22:46.443Z,54.2
2023-04-16T11:23:46.420Z,54.2
2023-04-16T11:24:46.437Z,54.2
2023-04-16T11:25:46.477Z,54.2
2023-04-16T11:26:46.432Z,54.2
2023-04-16T11:27:46.446Z,54.2
2023-04-16T11:28:46.455Z,54.2
2023-04-16T11:29:47.669Z,54.2
2023-04-16T11:30:46.394Z,54.2
2023-04-16T11:31:46.597Z,54.2
2023-04-16T11:32:46.489Z,54.2
2023-04-16T11:33:46.469Z,52.8
2023-04-16T11:34:46.444Z,52.8
2023-04-16T11:35:46.494Z,52.8
2023-04-16T11:36:46.490Z,52.8
2023-04-16T11:37:46.446Z,52.8
2023-04-16T11:38:46.456Z,52.8
2023-04-16T11:39:46.471Z,52.8
2023-04-16T11:40:46.470Z,52.8
2023-04-16T11:41:46.454Z,54.5
2023-04-16T11:42:46.530Z,54.5
2023-04-16T11:43:46.446Z,54.5
2023-04-16T11:44:46.430Z,54.5
2023-04-16T11:45:46.471Z,54.5
2023-04-16T11:46:46.493Z,54.5
2023-04-16T11:47:46.532Z,54.5
2023-04-16T11:48:46.467Z,54.5
2023-04-16T11:49:46.489Z,54.5
2023-04-16T11:50:46.480Z,54.5
2023-04-16T11:51:46.440Z,54.5
2023-04-16T11:52:46.471Z,54.5
2023-04-16T11:53:46.456Z,54.5
2023-04-16T11:54:46.426Z,56
2023-04-16T11:55:46.483Z,56
2023-04-16T11:56:46.487Z,56
2023-04-16T11:57:46.475Z,56
2023-04-16T11:58:46.477Z,56
2023-04-16T12:00:02.785Z,56
2023-04-16T12:00:46.520Z,56
2023-04-16T12:01:46.509Z,56
2023-04-16T12:02:46.604Z,56
2023-04-16T12:03:46.852Z,56
2023-04-16T12:04:46.630Z,56
2023-04-16T12:05:46.535Z,56
2023-04-16T12:06:46.468Z,56
2023-04-16T12:07:46.474Z,56
2023-04-16T12:08:46.489Z,56
2023-04-16T12:09:46.495Z,56
2023-04-16T12:10:46.497Z,56
2023-04-16T12:11:46.524Z,56
2023-04-16T12:12:46.490Z,56
2023-04-16T12:13:46.487Z,56
2023-04-16T12:14:46.489Z,56
2023-04-16T12:15:46.510Z,56
2023-04-16T12:16:46.569Z,56
2023-04-16T12:17:46.537Z,56
2023-04-16T12:18:46.493Z,56
2023-04-16T12:19:46.482Z,56
2023-04-16T12:20:46.510Z,56
2023-04-16T12:21:46.484Z,56
2023-04-16T12:22:46.508Z,55.3
2023-04-16T12:23:46.481Z,55.3
2023-04-16T12:24:46.483Z,55.3
2023-04-16T12:25:46.530Z,55.3
2023-04-16T12:26:46.523Z,55.3
2023-04-16T12:27:46.526Z,55.3
2023-04-16T12:28:46.488Z,55.3
2023-04-16T12:29:46.483Z,55.3
2023-04-16T12:30:46.514Z,55.3
2023-04-16T12:31:46.487Z,54.4
2023-04-16T12:32:46.575Z,54.4
2023-04-16T12:33:46.530Z,54.4
2023-04-16T12:34:48.723Z,54.4
2023-04-16T12:35:46.521Z,54.4
2023-04-16T12:36:46.577Z,54.4
2023-04-16T12:37:46.492Z,54.4
2023-04-16T12:38:46.518Z,54.4
2023-04-16T12:39:47.977Z,54.4
2023-04-16T12:40:46.494Z,54.4
2023-04-16T12:41:46.498Z,54.4
2023-04-16T12:42:46.522Z,54.4
2023-04-16T12:43:46.493Z,53.4
2023-04-16T12:44:46.546Z,53.4
2023-04-16T12:45:46.568Z,53.4
2023-04-16T12:46:46.728Z,53.4
2023-04-16T12:47:46.629Z,53.4
2023-04-16T12:48:46.507Z,53.4
2023-04-16T12:49:46.484Z,53.4
2023-04-16T12:50:46.653Z,53.4
2023-04-16T12:51:46.540Z,53.4
2023-04-16T12:52:46.556Z,53.4
2023-04-16T12:53:46.516Z,53.4
2023-04-16T12:54:46.508Z,53.4
2023-04-16T12:55:46.554Z,53.4
2023-04-16T12:56:46.546Z,53.4
2023-04-16T12:57:46.516Z,53.4
2023-04-16T12:58:46.556Z,53.4
2023-04-16T12:59:46.519Z,53.4
2023-04-16T13:00:46.556Z,53.4
2023-04-16T13:01:46.543Z,53.4
2023-04-16T13:02:46.660Z,53.4
2023-04-16T13:03:46.668Z,53.4
2023-04-16T13:04:46.556Z,53.4
2023-04-16T13:05:46.555Z,53.4
2023-04-16T13:06:46.545Z,53.4
2023-04-16T13:07:46.525Z,53.4
2023-04-16T13:08:46.561Z,53.4
2023-04-16T13:09:46.521Z,53.4
2023-04-16T13:10:46.561Z,53.4
2023-04-16T13:11:46.556Z,53.4
2023-04-16T13:12:46.574Z,53.4
2023-04-16T13:13:46.545Z,53.4
2023-04-16T13:14:46.573Z,53.4
2023-04-16T13:15:46.592Z,53.4
2023-04-16T13:16:46.579Z,53.4
2023-04-16T13:17:46.614Z,53.4
2023-04-16T13:18:46.590Z,53.4
2023-04-16T13:19:46.518Z,53.4
2023-04-16T13:20:46.553Z,53.4
2023-04-16T13:21:46.551Z,53.4
2023-04-16T13:22:46.571Z,53.4